CheckWX is a tool to help pilots better visualize weather data.  It is not intended as a substitute for an official pre-flight weather briefing.

15:34:02 UTC

KGNT METAR
Grants-Milan Municipal Airport
Grants, New Mexico, USA
Current

19 mins ago

KGNT 261515Z AUTO 14013G18KT 10SM CLR 19/M05 A3004 RMK AO2 T01931052
Observed
May-26 @ 15:15 UTC
Wind
  • 140° at 13 KTS
  • Gusting to 18 KTS
Visibility
10 SM
Flight Rules
VFR
Cloud Levels
  • Clear skies
Temperature
19°C / 66°F
Dewpoint
-5°C / 23°F
Humidity
19%
Altimeter
30.04" Hg
Pressure
1017.32 hPa
Previous

39 mins ago

KGNT 261455Z AUTO 16010KT 10SM CLR 18/M04 A3004 RMK AO2 T01811042
Observed
May-26 @ 14:55 UTC
Wind
  • 160° at 10 KTS
Visibility
10 SM
Flight Rules
VFR
Cloud Levels
  • Clear skies
Temperature
18°C / 64°F
Dewpoint
-4°C / 25°F
Humidity
22%
Altimeter
30.04" Hg
Pressure
1017.32 hPa
Previous

59 mins ago

KGNT 261435Z AUTO 16010KT 10SM CLR 17/M04 A3004 RMK AO2 T01701045
Observed
May-26 @ 14:35 UTC
Wind
  • 160° at 10 KTS
Visibility
10 SM
Flight Rules
VFR
Cloud Levels
  • Clear skies
Temperature
17°C / 63°F
Dewpoint
-5°C / 23°F
Humidity
22%
Altimeter
30.04" Hg
Pressure
1017.32 hPa